createdAt,value
2023-05-19T00:00:58.944Z,12.45
2023-05-19T00:03:25.930Z,11.85
2023-05-19T00:05:58.156Z,11.72
2023-05-19T00:08:25.081Z,11.96
2023-05-19T00:10:51.984Z,11.81
2023-05-19T00:13:19.799Z,11.86
2023-05-19T00:15:46.836Z,12.00
2023-05-19T00:18:13.706Z,11.94
2023-05-19T00:20:40.433Z,12.22
2023-05-19T00:23:07.140Z,12.28
2023-05-19T00:25:33.835Z,12.26
2023-05-19T00:28:00.513Z,12.29
2023-05-19T00:30:27.258Z,12.18
2023-05-19T00:32:53.989Z,12.28
2023-05-19T00:35:20.797Z,11.68
2023-05-19T00:37:47.544Z,11.67
2023-05-19T00:40:14.869Z,11.36
2023-05-19T00:42:42.132Z,11.36
2023-05-19T00:45:09.142Z,11.22
2023-05-19T00:47:36.030Z,11.13
2023-05-19T00:50:02.736Z,11.34
2023-05-19T00:52:29.519Z,11.06
2023-05-19T00:54:56.184Z,11.34
2023-05-19T00:57:23.602Z,11.42
2023-05-19T00:59:50.550Z,11.59
2023-05-19T01:02:17.402Z,11.62
2023-05-19T01:04:45.128Z,11.95
2023-05-19T01:07:11.806Z,11.67
2023-05-19T01:09:39.365Z,11.51
2023-05-19T01:12:06.682Z,11.70
2023-05-19T01:14:33.501Z,11.97
2023-05-19T01:17:09.726Z,11.75
2023-05-19T01:19:54.565Z,11.84
2023-05-19T01:22:36.111Z,11.99
2023-05-19T01:25:28.251Z,12.27
2023-05-19T01:28:00.490Z,12.14
2023-05-19T01:30:42.775Z,11.74
2023-05-19T01:33:12.811Z,12.17
2023-05-19T01:35:43.909Z,11.99
2023-05-19T01:38:13.154Z,11.70
2023-05-19T01:40:41.423Z,12.09
2023-05-19T01:43:11.829Z,11.67
2023-05-19T01:45:39.957Z,11.65
2023-05-19T01:48:09.910Z,11.72
2023-05-19T01:50:38.174Z,11.57
2023-05-19T01:53:05.105Z,11.16
2023-05-19T01:55:32.134Z,11.25
2023-05-19T01:58:36.558Z,11.27
2023-05-19T02:01:29.703Z,11.42
2023-05-19T02:04:30.531Z,10.75
2023-05-19T02:07:21.526Z,10.66
2023-05-19T02:09:58.765Z,10.50
2023-05-19T02:12:31.004Z,10.38
2023-05-19T02:15:05.573Z,10.38
2023-05-19T02:17:36.085Z,10.43
2023-05-19T02:20:06.529Z,10.16
2023-05-19T02:22:33.269Z,9.97
2023-05-19T02:25:00.021Z,10.08
2023-05-19T02:27:26.887Z,10.16
2023-05-19T02:29:53.826Z,9.82
2023-05-19T02:32:21.304Z,9.84
2023-05-19T02:34:48.216Z,9.79
2023-05-19T02:37:16.425Z,9.67
2023-05-19T02:39:44.088Z,9.87
2023-05-19T02:42:11.277Z,9.96
2023-05-19T02:44:38.090Z,10.36
2023-05-19T02:47:05.077Z,10.44
2023-05-19T02:49:31.771Z,10.85
2023-05-19T02:51:58.432Z,10.67
2023-05-19T02:54:25.132Z,10.86
2023-05-19T02:56:51.810Z,10.96
2023-05-19T02:59:18.500Z,10.87
2023-05-19T03:01:45.262Z,10.75
2023-05-19T03:04:11.925Z,10.74
2023-05-19T03:06:38.662Z,11.05
2023-05-19T03:09:05.373Z,10.95
2023-05-19T03:11:32.246Z,10.75
2023-05-19T03:13:59.296Z,10.99
2023-05-19T03:16:25.991Z,10.55
2023-05-19T03:18:52.756Z,10.67
2023-05-19T03:21:19.426Z,10.69
2023-05-19T03:23:46.098Z,10.40
2023-05-19T03:26:12.799Z,10.42
2023-05-19T03:28:39.476Z,10.22
2023-05-19T03:31:06.179Z,9.96
2023-05-19T03:33:32.900Z,10.21
2023-05-19T03:35:59.617Z,10.21
2023-05-19T03:38:26.405Z,10.12
2023-05-19T03:40:53.062Z,9.93
2023-05-19T03:43:19.693Z,10.40
2023-05-19T03:45:46.497Z,10.27
2023-05-19T03:48:13.274Z,10.24
2023-05-19T03:50:39.951Z,10.21
2023-05-19T03:53:06.650Z,10.19
2023-05-19T03:55:33.442Z,10.44
2023-05-19T03:58:00.181Z,10.74
2023-05-19T04:00:26.869Z,11.02
2023-05-19T04:02:53.604Z,11.09
2023-05-19T04:05:20.509Z,11.27
2023-05-19T04:07:47.295Z,11.50
2023-05-19T04:10:14.033Z,11.72
2023-05-19T04:12:40.728Z,11.78
2023-05-19T04:15:07.951Z,11.87
2023-05-19T04:17:34.840Z,12.04
2023-05-19T04:20:01.681Z,11.98
2023-05-19T04:22:28.415Z,12.04
2023-05-19T04:24:55.133Z,12.09
2023-05-19T04:27:21.890Z,12.05
2023-05-19T04:29:48.688Z,11.92
2023-05-19T04:32:15.954Z,12.11
2023-05-19T04:34:45.460Z,12.20
2023-05-19T04:37:15.168Z,12.20
2023-05-19T04:39:42.905Z,12.20
2023-05-19T04:42:10.028Z,12.22
2023-05-19T04:44:36.708Z,12.18
2023-05-19T04:47:04.240Z,12.21
2023-05-19T04:49:30.924Z,12.31
2023-05-19T04:51:57.718Z,12.33
2023-05-19T04:54:24.380Z,12.31
2023-05-19T04:56:51.089Z,12.35
2023-05-19T04:59:17.758Z,12.41
2023-05-19T05:01:44.467Z,12.49
2023-05-19T05:04:11.488Z,12.48
2023-05-19T05:06:38.196Z,12.45
2023-05-19T05:09:05.122Z,12.20
2023-05-19T05:11:32.241Z,12.45
2023-05-19T05:13:59.321Z,12.38
2023-05-19T05:16:26.568Z,12.74
2023-05-19T05:18:53.627Z,12.93
2023-05-19T05:21:20.807Z,13.13
2023-05-19T05:23:47.814Z,13.23
2023-05-19T05:26:19.452Z,12.95
2023-05-19T05:28:46.190Z,12.22
2023-05-19T05:31:12.939Z,12.63
2023-05-19T05:33:39.868Z,12.82
2023-05-19T05:36:06.943Z,12.72
2023-05-19T05:38:33.628Z,12.55
2023-05-19T05:41:01.631Z,12.34
2023-05-19T05:43:28.520Z,12.15
2023-05-19T05:45:56.980Z,12.73
2023-05-19T05:48:24.341Z,13.05
2023-05-19T05:50:51.994Z,13.52
2023-05-19T05:53:20.317Z,13.27
2023-05-19T05:55:47.997Z,13.81
2023-05-19T05:58:15.736Z,13.38
2023-05-19T06:00:43.730Z,13.68
2023-05-19T06:03:11.530Z,13.69
2023-05-19T06:05:41.314Z,14.14
2023-05-19T06:08:08.068Z,14.00
2023-05-19T06:10:35.082Z,13.36
2023-05-19T06:13:02.014Z,13.72
2023-05-19T06:15:28.724Z,13.07
2023-05-19T06:17:55.484Z,13.31
2023-05-19T06:20:22.259Z,14.14
2023-05-19T06:22:48.977Z,14.74
2023-05-19T06:25:15.727Z,15.27
2023-05-19T06:27:42.410Z,16.02
2023-05-19T06:30:09.420Z,16.18
2023-05-19T06:32:36.177Z,17.27
2023-05-19T06:35:06.149Z,17.58
2023-05-19T06:37:32.835Z,17.37
2023-05-19T06:39:59.597Z,17.78
2023-05-19T06:42:26.280Z,17.04
2023-05-19T06:44:53.282Z,17.03
2023-05-19T06:47:20.024Z,16.55
2023-05-19T06:49:47.600Z,16.88
2023-05-19T06:52:14.316Z,16.60
2023-05-19T06:54:41.037Z,17.77
2023-05-19T06:57:07.877Z,17.71
2023-05-19T06:59:34.560Z,18.58
2023-05-19T07:02:01.261Z,18.90
2023-05-19T07:04:27.999Z,19.46
2023-05-19T07:06:54.678Z,18.25
2023-05-19T07:09:21.469Z,18.83
2023-05-19T07:11:48.752Z,17.42
2023-05-19T07:14:15.481Z,17.32
2023-05-19T07:16:42.252Z,16.35
2023-05-19T07:19:08.957Z,16.94
2023-05-19T07:21:35.817Z,18.03
2023-05-19T07:24:02.497Z,18.58
2023-05-19T07:26:29.385Z,16.27
2023-05-19T07:28:56.446Z,17.65
2023-05-19T07:31:24.464Z,19.08
2023-05-19T07:33:53.123Z,19.43
2023-05-19T07:36:21.247Z,19.06
2023-05-19T07:38:47.998Z,19.41
2023-05-19T07:41:15.175Z,20.44
2023-05-19T07:43:42.956Z,19.90
2023-05-19T07:46:09.842Z,19.88
2023-05-19T07:48:37.123Z,18.78
2023-05-19T07:51:03.932Z,19.77
2023-05-19T07:53:30.782Z,20.25
2023-05-19T07:56:00.269Z,20.67
2023-05-19T07:58:26.999Z,20.44
2023-05-19T08:00:53.658Z,20.02
2023-05-19T08:03:20.872Z,20.06
2023-05-19T08:05:47.842Z,20.11
2023-05-19T08:08:14.693Z,20.14
2023-05-19T08:10:41.346Z,20.25
2023-05-19T08:13:08.126Z,19.25
2023-05-19T08:15:37.488Z,19.84
2023-05-19T08:18:04.293Z,19.35
2023-05-19T08:20:31.501Z,17.34
2023-05-19T08:22:58.619Z,15.55
2023-05-19T08:25:25.379Z,14.89
2023-05-19T08:27:52.071Z,15.26
2023-05-19T08:30:18.757Z,15.22
2023-05-19T08:32:45.558Z,15.25
2023-05-19T08:35:12.318Z,14.69
2023-05-19T08:37:38.990Z,14.45
2023-05-19T08:40:06.497Z,15.21
2023-05-19T08:42:33.450Z,16.72
2023-05-19T08:45:01.580Z,16.38
2023-05-19T08:47:29.481Z,16.23
2023-05-19T08:50:05.393Z,17.46
2023-05-19T08:52:53.553Z,19.00
2023-05-19T08:55:58.864Z,19.53
2023-05-19T08:58:30.364Z,19.03
2023-05-19T09:01:01.122Z,17.76
2023-05-19T09:03:29.477Z,18.01
2023-05-19T09:05:56.380Z,17.97
2023-05-19T09:08:23.254Z,17.62
2023-05-19T09:10:53.000Z,17.97
2023-05-19T09:13:20.117Z,17.84
2023-05-19T09:15:48.142Z,17.82
2023-05-19T09:18:14.885Z,17.37
2023-05-19T09:20:43.945Z,16.23
2023-05-19T09:23:18.473Z,15.98
2023-05-19T09:25:52.924Z,15.93
2023-05-19T09:28:30.579Z,16.78
2023-05-19T09:31:07.301Z,17.88
2023-05-19T09:33:36.411Z,18.02
2023-05-19T09:36:04.481Z,18.04
2023-05-19T09:38:31.399Z,17.85
2023-05-19T09:41:00.335Z,17.18
2023-05-19T09:43:34.597Z,17.05
2023-05-19T09:46:04.368Z,17.35
2023-05-19T09:48:31.227Z,16.85
2023-05-19T09:50:58.199Z,16.46
2023-05-19T09:53:25.187Z,16.55
2023-05-19T09:55:55.901Z,16.48
2023-05-19T09:58:22.705Z,16.57
2023-05-19T10:00:50.948Z,16.89
2023-05-19T10:03:19.768Z,17.36
2023-05-19T10:05:48.581Z,17.60
2023-05-19T10:08:19.200Z,17.90
2023-05-19T10:10:47.158Z,18.17
2023-05-19T10:13:14.002Z,17.82
2023-05-19T10:15:57.283Z,17.86
2023-05-19T10:18:26.601Z,17.79
2023-05-19T10:20:54.626Z,17.77
2023-05-19T10:23:21.318Z,18.12
2023-05-19T10:25:51.205Z,17.90
2023-05-19T10:28:22.584Z,18.41
2023-05-19T10:30:54.795Z,18.64
2023-05-19T10:33:54.455Z,18.15
2023-05-19T10:36:26.937Z,18.01
2023-05-19T10:39:03.805Z,18.28
2023-05-19T10:41:55.433Z,18.41
2023-05-19T10:44:40.032Z,18.39
2023-05-19T10:47:07.793Z,18.41
2023-05-19T10:49:36.252Z,18.31
2023-05-19T10:52:23.031Z,17.84
2023-05-19T10:54:50.054Z,17.92
2023-05-19T10:57:26.392Z,18.01
2023-05-19T10:59:53.086Z,17.85
2023-05-19T11:02:39.269Z,18.26
2023-05-19T11:05:12.280Z,18.58
2023-05-19T11:07:42.357Z,18.94
2023-05-19T11:10:12.043Z,19.27
2023-05-19T11:12:44.762Z,19.11
2023-05-19T11:15:15.472Z,18.69
2023-05-19T11:17:49.011Z,19.02
2023-05-19T11:20:29.390Z,18.48
2023-05-19T11:23:06.106Z,18.58
2023-05-19T11:25:42.628Z,19.00
2023-05-19T11:28:11.022Z,19.09
2023-05-19T11:30:39.786Z,19.14
2023-05-19T11:33:07.867Z,19.14
2023-05-19T11:35:36.508Z,19.43
2023-05-19T11:38:03.745Z,19.12
2023-05-19T11:40:30.926Z,18.59
2023-05-19T11:42:58.451Z,18.43
2023-05-19T11:45:31.556Z,17.58
2023-05-19T11:48:01.931Z,17.57
2023-05-19T11:50:31.405Z,17.31
2023-05-19T11:53:01.213Z,17.03
2023-05-19T11:55:28.537Z,17.02
2023-05-19T11:58:02.950Z,17.29
2023-05-19T12:00:35.958Z,17.71
2023-05-19T12:03:03.290Z,18.24
2023-05-19T12:05:31.506Z,18.13
2023-05-19T12:08:00.607Z,17.78
2023-05-19T12:10:30.904Z,17.84
2023-05-19T12:12:57.847Z,17.59
2023-05-19T12:15:25.983Z,17.65
2023-05-19T12:18:01.153Z,17.94
2023-05-19T12:20:30.524Z,17.83
2023-05-19T12:22:58.759Z,16.91
2023-05-19T12:25:25.652Z,16.95
2023-05-19T12:27:58.087Z,17.12
2023-05-19T12:30:27.995Z,17.43
2023-05-19T12:32:55.452Z,17.76
2023-05-19T12:35:27.402Z,17.79
2023-05-19T12:37:54.249Z,17.80
2023-05-19T12:40:21.576Z,17.37
2023-05-19T12:42:49.347Z,17.77
2023-05-19T12:45:21.116Z,17.28
2023-05-19T12:47:49.307Z,17.32
2023-05-19T12:50:16.079Z,17.29
2023-05-19T12:52:50.158Z,17.27
2023-05-19T12:55:17.501Z,17.17
2023-05-19T12:57:49.903Z,17.42
2023-05-19T13:00:22.155Z,17.83
2023-05-19T13:03:07.011Z,17.39
2023-05-19T13:05:42.314Z,17.15
2023-05-19T13:08:09.074Z,17.20
2023-05-19T13:10:38.628Z,17.39
2023-05-19T13:13:06.581Z,17.26
2023-05-19T13:15:40.233Z,17.18
2023-05-19T13:18:10.382Z,17.22
2023-05-19T13:20:42.084Z,17.38
2023-05-19T13:23:13.315Z,17.06
2023-05-19T13:25:41.048Z,17.31
2023-05-19T13:28:07.794Z,17.14
2023-05-19T13:30:37.747Z,17.02
2023-05-19T13:33:04.886Z,17.30
2023-05-19T13:35:31.715Z,17.15
2023-05-19T13:37:58.527Z,17.58
2023-05-19T13:40:25.232Z,17.56
2023-05-19T13:42:52.143Z,18.03
2023-05-19T13:45:18.867Z,17.88
2023-05-19T13:47:45.761Z,18.14
2023-05-19T13:50:12.601Z,18.03
2023-05-19T13:52:39.502Z,17.60
2023-05-19T13:55:07.427Z,17.71
2023-05-19T13:57:34.128Z,17.55
2023-05-19T14:00:03.691Z,17.44
2023-05-19T14:02:31.150Z,17.14
2023-05-19T14:04:58.095Z,17.18
2023-05-19T14:07:24.760Z,17.33
2023-05-19T14:09:51.430Z,17.71
2023-05-19T14:12:18.069Z,17.77
2023-05-19T14:14:44.919Z,17.67
2023-05-19T14:17:15.149Z,18.42
2023-05-19T14:19:41.804Z,17.88
2023-05-19T14:22:08.449Z,17.38
2023-05-19T14:24:35.285Z,17.09
2023-05-19T14:27:01.954Z,17.19
2023-05-19T14:29:28.631Z,16.86
2023-05-19T14:31:55.304Z,16.60
2023-05-19T14:34:22.083Z,17.29
2023-05-19T14:36:48.815Z,17.12
2023-05-19T14:39:15.719Z,16.98
2023-05-19T14:41:42.443Z,16.71
2023-05-19T14:44:09.205Z,16.50
2023-05-19T14:46:35.922Z,16.31
2023-05-19T14:49:02.716Z,16.17
2023-05-19T14:51:29.353Z,15.92
2023-05-19T14:53:56.044Z,16.20
2023-05-19T14:56:22.729Z,15.99
2023-05-19T14:58:49.433Z,16.09
2023-05-19T15:01:16.290Z,16.05
2023-05-19T15:03:43.112Z,15.72
2023-05-19T15:06:10.469Z,15.62
2023-05-19T15:08:37.540Z,15.74
2023-05-19T15:11:04.738Z,15.79
2023-05-19T15:13:31.415Z,15.78
2023-05-19T15:16:12.379Z,16.09
2023-05-19T15:18:43.578Z,15.93
2023-05-19T15:21:10.311Z,15.87
2023-05-19T15:23:36.980Z,15.79
2023-05-19T15:26:03.943Z,15.99
2023-05-19T15:28:32.806Z,15.89
2023-05-19T15:30:59.615Z,15.96
2023-05-19T15:33:26.293Z,16.16
2023-05-19T15:35:52.944Z,15.72
2023-05-19T15:38:19.911Z,15.59
2023-05-19T15:40:47.330Z,15.86
2023-05-19T15:43:14.178Z,15.88
2023-05-19T15:45:40.966Z,16.03
2023-05-19T15:48:08.422Z,16.17
2023-05-19T15:50:36.386Z,15.98
2023-05-19T15:53:03.372Z,15.57
2023-05-19T15:55:30.068Z,15.61
2023-05-19T15:57:56.746Z,15.56
2023-05-19T16:00:23.472Z,15.79
2023-05-19T16:02:50.217Z,15.42
2023-05-19T16:05:17.063Z,15.45
2023-05-19T16:07:43.751Z,15.52
2023-05-19T16:10:10.625Z,15.48
2023-05-19T16:12:37.288Z,15.16
2023-05-19T16:15:04.199Z,15.33
2023-05-19T16:17:30.934Z,15.41
2023-05-19T16:19:57.755Z,15.47
2023-05-19T16:22:24.491Z,15.55
2023-05-19T16:24:51.961Z,15.21
2023-05-19T16:27:19.050Z,15.12
2023-05-19T16:29:45.886Z,15.21
2023-05-19T16:32:13.157Z,15.19
2023-05-19T16:34:40.128Z,15.10
2023-05-19T16:37:07.031Z,15.12
2023-05-19T16:39:36.063Z,15.03
2023-05-19T16:42:03.924Z,15.08
2023-05-19T16:44:30.587Z,15.00
2023-05-19T16:46:57.348Z,14.85
2023-05-19T16:49:24.037Z,14.79
2023-05-19T16:51:50.742Z,14.85
2023-05-19T16:54:17.478Z,15.03
2023-05-19T16:56:44.290Z,15.10
2023-05-19T16:59:10.948Z,15.19
2023-05-19T17:01:37.674Z,15.09
2023-05-19T17:04:04.477Z,14.98
2023-05-19T17:06:34.043Z,14.92
2023-05-19T17:09:00.766Z,15.05
2023-05-19T17:11:27.834Z,14.83
2023-05-19T17:13:54.557Z,14.69
2023-05-19T17:16:21.324Z,14.83
2023-05-19T17:18:48.147Z,14.74
2023-05-19T17:21:15.160Z,14.88
2023-05-19T17:23:41.826Z,14.65
2023-05-19T17:26:08.775Z,14.48
2023-05-19T17:28:35.481Z,14.59
2023-05-19T17:31:09.731Z,14.63
2023-05-19T17:33:36.774Z,14.88
2023-05-19T17:36:04.442Z,14.74
2023-05-19T17:38:31.247Z,14.93
2023-05-19T17:40:58.903Z,14.98
2023-05-19T17:43:25.810Z,14.89
2023-05-19T17:45:52.806Z,14.83
2023-05-19T17:48:19.697Z,14.51
2023-05-19T17:50:47.608Z,14.33
2023-05-19T17:53:16.742Z,14.21
2023-05-19T17:55:59.101Z,14.40
2023-05-19T17:58:26.659Z,14.23
2023-05-19T18:00:53.890Z,14.40
2023-05-19T18:03:24.159Z,14.85
2023-05-19T18:05:51.270Z,14.93
2023-05-19T18:08:18.468Z,14.53
2023-05-19T18:10:45.391Z,14.62
2023-05-19T18:13:12.250Z,14.65
2023-05-19T18:15:38.963Z,14.39
2023-05-19T18:18:05.741Z,14.46
2023-05-19T18:20:34.943Z,14.34
2023-05-19T18:23:02.271Z,14.16
2023-05-19T18:25:29.081Z,14.26
2023-05-19T18:27:55.842Z,14.24
2023-05-19T18:30:23.179Z,14.09
2023-05-19T18:32:49.918Z,13.96
2023-05-19T18:35:16.680Z,14.02
2023-05-19T18:37:45.946Z,14.10
2023-05-19T18:40:12.712Z,14.10
2023-05-19T18:42:39.460Z,13.96
2023-05-19T18:45:06.576Z,14.09
2023-05-19T18:47:33.410Z,13.89
2023-05-19T18:50:00.208Z,13.75
2023-05-19T18:52:26.943Z,13.82
2023-05-19T18:54:53.832Z,13.59
2023-05-19T18:57:20.510Z,13.66
2023-05-19T18:59:47.204Z,13.58
2023-05-19T19:02:13.950Z,13.70
2023-05-19T19:04:40.729Z,13.86
2023-05-19T19:07:07.503Z,13.67
2023-05-19T19:09:34.269Z,13.48
2023-05-19T19:12:00.961Z,13.43
2023-05-19T19:14:27.702Z,13.57
2023-05-19T19:16:54.462Z,13.45
2023-05-19T19:19:21.346Z,13.42
2023-05-19T19:21:48.133Z,13.37
2023-05-19T19:24:14.938Z,13.33
2023-05-19T19:26:41.694Z,13.23
2023-05-19T19:29:08.396Z,13.27
2023-05-19T19:31:35.114Z,13.28
2023-05-19T19:34:01.812Z,13.35
2023-05-19T19:36:28.499Z,13.30
2023-05-19T19:38:55.205Z,13.39
2023-05-19T19:41:21.891Z,13.43
2023-05-19T19:43:48.628Z,13.28
2023-05-19T19:46:15.320Z,13.31
2023-05-19T19:48:42.278Z,13.23
2023-05-19T19:51:09.016Z,13.25
2023-05-19T19:53:35.746Z,13.19
2023-05-19T19:56:03.482Z,13.04
2023-05-19T19:58:30.265Z,13.03
2023-05-19T20:01:01.726Z,13.00
2023-05-19T20:03:28.712Z,12.83
2023-05-19T20:05:56.604Z,12.78
2023-05-19T20:08:24.945Z,12.75
2023-05-19T20:10:52.194Z,12.76
2023-05-19T20:13:19.490Z,12.74
2023-05-19T20:15:49.401Z,12.72
2023-05-19T20:18:16.150Z,12.66
2023-05-19T20:20:43.000Z,12.72
2023-05-19T20:23:09.792Z,12.65
2023-05-19T20:25:42.540Z,12.64
2023-05-19T20:28:17.032Z,12.67
2023-05-19T20:30:44.041Z,12.73
2023-05-19T20:33:10.778Z,12.75
2023-05-19T20:35:37.896Z,12.69
2023-05-19T20:38:04.657Z,12.74
2023-05-19T20:40:31.284Z,12.78
2023-05-19T20:42:58.391Z,12.56
2023-05-19T20:45:25.089Z,12.61
2023-05-19T20:47:52.493Z,12.67
2023-05-19T20:50:19.413Z,12.63
2023-05-19T20:52:46.101Z,12.78
2023-05-19T20:55:12.774Z,12.73
2023-05-19T20:57:39.536Z,12.76
2023-05-19T21:00:06.977Z,12.76
2023-05-19T21:02:36.454Z,12.93
2023-05-19T21:05:04.028Z,12.63
2023-05-19T21:07:30.854Z,12.47
2023-05-19T21:09:57.524Z,12.38
2023-05-19T21:12:24.186Z,12.43
2023-05-19T21:14:51.856Z,12.52
2023-05-19T21:17:18.510Z,12.45
2023-05-19T21:19:45.184Z,12.57
2023-05-19T21:22:11.880Z,12.39
2023-05-19T21:24:38.582Z,12.49
2023-05-19T21:27:05.472Z,12.31
2023-05-19T21:29:32.143Z,12.30
2023-05-19T21:32:01.376Z,12.40
2023-05-19T21:34:28.053Z,12.31
2023-05-19T21:36:54.864Z,12.39
2023-05-19T21:39:21.501Z,12.24
2023-05-19T21:41:48.244Z,12.24
2023-05-19T21:44:15.034Z,12.18
2023-05-19T21:46:41.806Z,12.15
2023-05-19T21:49:10.253Z,12.24
2023-05-19T21:51:36.932Z,12.10
2023-05-19T21:54:03.630Z,12.01
2023-05-19T21:56:30.310Z,12.13
2023-05-19T21:58:57.111Z,12.13
2023-05-19T22:01:23.815Z,12.13
2023-05-19T22:03:50.562Z,12.04
2023-05-19T22:06:17.232Z,12.01
2023-05-19T22:08:44.006Z,12.01
2023-05-19T22:11:10.694Z,11.97
2023-05-19T22:13:37.501Z,12.08
2023-05-19T22:16:04.450Z,11.94
2023-05-19T22:18:31.148Z,11.99
2023-05-19T22:20:57.830Z,12.08
2023-05-19T22:23:24.483Z,11.98
2023-05-19T22:25:51.367Z,11.95
2023-05-19T22:28:18.050Z,11.95
2023-05-19T22:30:44.717Z,11.89
2023-05-19T22:33:12.706Z,11.79
2023-05-19T22:35:39.542Z,11.79
2023-05-19T22:38:07.470Z,11.69
2023-05-19T22:40:36.690Z,11.85
2023-05-19T22:43:03.560Z,11.83
2023-05-19T22:45:31.219Z,11.81
2023-05-19T22:47:58.343Z,11.80
2023-05-19T22:50:25.099Z,11.79
2023-05-19T22:52:51.765Z,11.72
2023-05-19T22:55:18.470Z,11.79
2023-05-19T22:57:45.214Z,11.76
2023-05-19T23:00:12.685Z,11.75
2023-05-19T23:02:42.595Z,11.71
2023-05-19T23:05:09.414Z,11.71
2023-05-19T23:07:36.365Z,11.79
2023-05-19T23:10:03.248Z,11.68
2023-05-19T23:12:30.000Z,11.69
2023-05-19T23:14:56.759Z,11.72
2023-05-19T23:17:23.617Z,11.66
2023-05-19T23:19:50.409Z,11.56
2023-05-19T23:22:17.163Z,11.60
2023-05-19T23:24:43.888Z,11.61
2023-05-19T23:27:10.566Z,11.68
2023-05-19T23:29:37.300Z,11.60
2023-05-19T23:32:04.201Z,11.74
2023-05-19T23:34:30.877Z,11.54
2023-05-19T23:36:57.554Z,11.51
2023-05-19T23:39:24.897Z,11.56
2023-05-19T23:41:51.699Z,11.63
2023-05-19T23:44:19.217Z,11.60
2023-05-19T23:46:46.021Z,11.53
2023-05-19T23:49:12.733Z,11.62
2023-05-19T23:51:39.489Z,11.64
2023-05-19T23:54:06.239Z,11.74
2023-05-19T23:56:32.889Z,11.57
2023-05-19T23:59:00.658Z,11.75
